createdAt,value
2022-08-26T00:02:02.893Z,22.67
2022-08-26T00:04:31.350Z,22.58
2022-08-26T00:06:59.989Z,22.57
2022-08-26T00:09:30.127Z,22.56
2022-08-26T00:11:56.764Z,22.55
2022-08-26T00:14:30.930Z,22.55
2022-08-26T00:16:58.230Z,22.52
2022-08-26T00:19:24.713Z,22.49
2022-08-26T00:21:52.070Z,22.47
2022-08-26T00:24:21.917Z,22.45
2022-08-26T00:26:49.668Z,22.44
2022-08-26T00:29:16.678Z,22.47
2022-08-26T00:31:45.119Z,22.41
2022-08-26T00:34:12.744Z,22.34
2022-08-26T00:36:40.633Z,22.25
2022-08-26T00:39:16.279Z,22.28
2022-08-26T00:41:43.294Z,22.23
2022-08-26T00:44:11.101Z,22.26
2022-08-26T00:46:46.881Z,22.22
2022-08-26T00:49:43.583Z,22.22
2022-08-26T00:52:15.671Z,22.24
2022-08-26T00:54:49.233Z,22.27
2022-08-26T00:57:19.119Z,22.30
2022-08-26T00:59:51.242Z,22.36
2022-08-26T01:02:19.963Z,22.31
2022-08-26T01:04:48.236Z,22.32
2022-08-26T01:07:30.265Z,22.33
2022-08-26T01:09:59.900Z,22.31
2022-08-26T01:12:28.752Z,22.36
2022-08-26T01:14:55.594Z,22.36
2022-08-26T01:17:23.131Z,22.41
2022-08-26T01:20:04.085Z,22.38
2022-08-26T01:22:42.413Z,22.35
2022-08-26T01:25:10.662Z,22.34
2022-08-26T01:27:37.729Z,22.41
2022-08-26T01:30:06.524Z,22.42
2022-08-26T01:32:36.439Z,22.36
2022-08-26T01:35:07.530Z,22.36
2022-08-26T01:37:39.036Z,22.33
2022-08-26T01:40:10.427Z,22.32
2022-08-26T01:42:37.489Z,22.32
2022-08-26T01:45:13.464Z,22.28
2022-08-26T01:47:42.682Z,22.27
2022-08-26T01:50:27.552Z,22.17
2022-08-26T01:52:56.825Z,22.17
2022-08-26T01:55:25.532Z,22.18
2022-08-26T01:58:05.255Z,22.22
2022-08-26T02:00:35.211Z,22.24
2022-08-26T02:03:17.242Z,22.16
2022-08-26T02:05:48.818Z,22.16
2022-08-26T02:08:25.314Z,22.10
2022-08-26T02:10:54.851Z,22.10
2022-08-26T02:13:23.075Z,22.11
2022-08-26T02:15:52.100Z,22.12
2022-08-26T02:18:20.854Z,22.15
2022-08-26T02:20:51.636Z,22.16
2022-08-26T02:23:19.536Z,22.11
2022-08-26T02:26:04.982Z,22.12
2022-08-26T02:28:41.655Z,22.11
2022-08-26T02:31:09.283Z,22.06
2022-08-26T02:33:36.594Z,22.01
2022-08-26T02:36:21.998Z,21.94
2022-08-26T02:38:48.478Z,21.87
2022-08-26T02:41:15.107Z,21.88
2022-08-26T02:43:41.563Z,21.83
2022-08-26T02:46:08.338Z,21.79
2022-08-26T02:48:36.482Z,21.73
2022-08-26T02:51:04.825Z,21.75
2022-08-26T02:53:31.849Z,21.76
2022-08-26T02:56:03.119Z,21.72
2022-08-26T02:58:30.183Z,21.68
2022-08-26T03:00:56.651Z,21.62
2022-08-26T03:03:23.730Z,21.60
2022-08-26T03:05:50.841Z,21.55
2022-08-26T03:08:17.505Z,21.57
2022-08-26T03:10:44.078Z,21.46
2022-08-26T03:13:10.563Z,21.42
2022-08-26T03:15:37.706Z,21.41
2022-08-26T03:18:08.207Z,21.34
2022-08-26T03:20:35.262Z,21.34
2022-08-26T03:23:01.736Z,21.33
2022-08-26T03:25:29.492Z,21.34
2022-08-26T03:27:55.954Z,21.38
2022-08-26T03:30:44.206Z,21.38
2022-08-26T03:33:13.914Z,21.42
2022-08-26T03:35:43.434Z,21.45
2022-08-26T03:38:10.858Z,21.40
2022-08-26T03:40:39.096Z,21.33
2022-08-26T03:43:13.454Z,21.24
2022-08-26T03:45:43.185Z,21.20
2022-08-26T03:48:12.787Z,21.23
2022-08-26T03:50:39.373Z,21.27
2022-08-26T03:53:12.950Z,21.33
2022-08-26T03:55:41.254Z,21.42
2022-08-26T03:58:11.528Z,21.39
2022-08-26T04:00:38.243Z,21.37
2022-08-26T04:03:05.349Z,21.41
2022-08-26T04:05:39.405Z,21.44
2022-08-26T04:08:06.762Z,21.43
2022-08-26T04:10:34.967Z,21.44
2022-08-26T04:13:03.138Z,21.42
2022-08-26T04:15:30.515Z,21.39
2022-08-26T04:17:57.566Z,21.37
2022-08-26T04:20:24.528Z,21.35
2022-08-26T04:22:51.841Z,21.38
2022-08-26T04:25:20.465Z,21.41
2022-08-26T04:27:47.232Z,21.44
2022-08-26T04:30:15.801Z,21.42
2022-08-26T04:32:43.530Z,21.32
2022-08-26T04:35:10.650Z,21.28
2022-08-26T04:37:37.763Z,21.25
2022-08-26T04:40:06.826Z,21.29
2022-08-26T04:42:35.029Z,21.24
2022-08-26T04:45:10.361Z,21.21
2022-08-26T04:47:38.118Z,21.21
2022-08-26T04:50:06.952Z,21.19
2022-08-26T04:52:38.168Z,21.36
2022-08-26T04:55:08.471Z,21.24
2022-08-26T04:57:39.273Z,21.20
2022-08-26T05:00:10.436Z,21.19
2022-08-26T05:02:41.187Z,21.12
2022-08-26T05:05:10.438Z,21.16
2022-08-26T05:07:36.855Z,21.17
2022-08-26T05:10:05.116Z,21.15
2022-08-26T05:12:36.422Z,21.15
2022-08-26T05:15:06.099Z,21.20
2022-08-26T05:17:35.213Z,21.08
2022-08-26T05:20:05.202Z,21.06
2022-08-26T05:22:38.528Z,21.06
2022-08-26T05:25:06.799Z,21.09
2022-08-26T05:27:35.040Z,21.20
2022-08-26T05:30:01.758Z,21.12
2022-08-26T05:32:28.257Z,21.09
2022-08-26T05:34:57.003Z,21.15
2022-08-26T05:37:25.201Z,21.05
2022-08-26T05:39:52.051Z,21.09
2022-08-26T05:42:24.064Z,21.11
2022-08-26T05:44:55.973Z,21.08
2022-08-26T05:47:24.240Z,21.12
2022-08-26T05:49:51.568Z,21.06
2022-08-26T05:52:19.661Z,21.14
2022-08-26T05:57:14.505Z,21.21
2022-08-26T05:59:40.985Z,21.27
2022-08-26T06:02:08.460Z,21.32
2022-08-26T06:04:36.758Z,21.33
2022-08-26T06:07:04.387Z,21.34
2022-08-26T06:09:32.298Z,21.34
2022-08-26T06:12:01.801Z,21.36
2022-08-26T06:14:30.468Z,21.42
2022-08-26T06:16:57.256Z,21.39
2022-08-26T06:19:23.759Z,21.45
2022-08-26T06:21:54.749Z,21.50
2022-08-26T06:24:43.000Z,21.57
2022-08-26T06:27:13.448Z,21.66
2022-08-26T06:29:40.697Z,21.74
2022-08-26T06:32:08.796Z,21.75
2022-08-26T06:34:35.523Z,21.83
2022-08-26T06:37:03.289Z,21.90
2022-08-26T06:39:31.467Z,21.86
2022-08-26T06:41:59.389Z,21.97
2022-08-26T06:44:26.720Z,22.08
2022-08-26T06:46:53.523Z,21.98
2022-08-26T06:49:27.137Z,22.06
2022-08-26T06:51:58.410Z,22.03
2022-08-26T06:54:25.590Z,22.07
2022-08-26T06:56:52.301Z,22.13
2022-08-26T06:59:18.900Z,22.18
2022-08-26T07:01:46.376Z,22.18
2022-08-26T07:04:20.257Z,22.24
2022-08-26T07:06:52.260Z,22.36
2022-08-26T07:09:21.132Z,22.34
2022-08-26T07:11:48.141Z,22.36
2022-08-26T07:14:16.720Z,22.53
2022-08-26T07:16:43.241Z,22.49
2022-08-26T07:19:11.618Z,22.55
2022-08-26T07:21:41.453Z,22.67
2022-08-26T07:24:09.309Z,22.71
2022-08-26T07:26:38.329Z,22.85
2022-08-26T07:29:06.930Z,22.94
2022-08-26T07:31:39.258Z,22.85
2022-08-26T07:34:10.502Z,23.11
2022-08-26T07:36:37.009Z,23.34
2022-08-26T07:39:04.451Z,23.58
2022-08-26T07:41:31.017Z,23.78
2022-08-26T07:43:58.510Z,23.63
2022-08-26T07:46:27.280Z,23.76
2022-08-26T07:48:57.073Z,23.94
2022-08-26T07:51:24.789Z,24.09
2022-08-26T07:53:52.354Z,24.20
2022-08-26T07:56:20.960Z,24.18
2022-08-26T07:58:51.292Z,24.31
2022-08-26T08:01:18.801Z,24.30
2022-08-26T08:03:45.480Z,24.41
2022-08-26T08:06:12.026Z,24.32
2022-08-26T08:08:41.300Z,24.33
2022-08-26T08:11:08.253Z,24.38
2022-08-26T08:13:37.989Z,24.22
2022-08-26T08:16:05.392Z,24.17
2022-08-26T08:18:31.918Z,24.19
2022-08-26T08:21:21.097Z,24.12
2022-08-26T08:23:47.212Z,24.12
2022-08-26T08:26:14.085Z,24.28
2022-08-26T08:28:46.223Z,24.53
2022-08-26T08:31:56.070Z,24.56
2022-08-26T08:34:15.588Z,24.68
2022-08-26T08:36:42.142Z,24.74
2022-08-26T08:39:10.453Z,24.88
2022-08-26T08:41:55.340Z,25.02
2022-08-26T08:47:04.385Z,25.37
2022-08-26T08:49:34.492Z,25.38
2022-08-26T08:52:18.783Z,25.63
2022-08-26T08:54:46.570Z,25.96
2022-08-26T08:57:27.237Z,26.16
2022-08-26T09:00:08.221Z,26.32
2022-08-26T09:02:43.077Z,26.28
2022-08-26T09:05:24.718Z,26.54
2022-08-26T09:08:12.488Z,26.64
2022-08-26T09:10:43.623Z,26.78
2022-08-26T09:13:16.808Z,26.86
2022-08-26T09:16:02.880Z,27.01
2022-08-26T09:18:50.150Z,27.02
2022-08-26T09:21:19.912Z,26.89
2022-08-26T09:23:49.618Z,27.08
2022-08-26T09:26:19.324Z,27.30
2022-08-26T09:28:55.085Z,27.42
2022-08-26T09:31:31.861Z,27.52
2022-08-26T09:34:05.352Z,27.73
2022-08-26T09:36:41.351Z,27.90
2022-08-26T09:39:29.262Z,27.95
2022-08-26T09:42:23.160Z,28.09
2022-08-26T09:44:54.326Z,28.32
2022-08-26T09:47:30.133Z,28.13
2022-08-26T09:50:19.954Z,28.29
2022-08-26T09:52:47.387Z,28.49
2022-08-26T09:55:22.607Z,28.52
2022-08-26T09:57:54.662Z,28.66
2022-08-26T10:00:32.082Z,28.72
2022-08-26T10:03:02.768Z,28.75
2022-08-26T10:05:57.041Z,28.69
2022-08-26T10:08:34.487Z,28.49
2022-08-26T10:11:04.499Z,28.56
2022-08-26T10:13:31.257Z,28.67
2022-08-26T10:16:06.114Z,28.70
2022-08-26T10:18:42.275Z,28.55
2022-08-26T10:21:11.688Z,28.77
2022-08-26T10:23:43.304Z,28.93
2022-08-26T10:26:22.325Z,28.88
2022-08-26T10:29:04.077Z,29.15
2022-08-26T10:31:46.744Z,28.94
2022-08-26T10:34:16.953Z,29.06
2022-08-26T10:37:16.676Z,29.36
2022-08-26T10:40:01.992Z,29.22
2022-08-26T10:42:52.959Z,29.34
2022-08-26T10:45:25.328Z,29.53
2022-08-26T10:48:10.091Z,29.71
2022-08-26T10:50:39.414Z,29.91
2022-08-26T10:53:17.934Z,29.83
2022-08-26T10:56:03.346Z,29.52
2022-08-26T10:58:56.095Z,29.60
2022-08-26T11:01:43.474Z,29.52
2022-08-26T11:04:48.346Z,29.62
2022-08-26T11:07:36.870Z,29.87
2022-08-26T11:10:28.594Z,29.64
2022-08-26T11:13:00.919Z,29.40
2022-08-26T11:15:30.234Z,29.10
2022-08-26T11:18:04.659Z,28.83
2022-08-26T11:20:41.998Z,28.75
2022-08-26T11:23:23.964Z,28.72
2022-08-26T11:25:57.267Z,28.64
2022-08-26T11:28:35.481Z,28.66
2022-08-26T11:31:04.481Z,28.58
2022-08-26T11:33:51.293Z,28.64
2022-08-26T11:36:42.746Z,28.57
2022-08-26T11:39:24.874Z,28.49
2022-08-26T11:41:55.661Z,28.40
2022-08-26T11:44:37.583Z,28.41
2022-08-26T11:47:11.486Z,28.43
2022-08-26T11:49:38.717Z,28.26
2022-08-26T11:52:21.117Z,28.31
2022-08-26T11:55:02.515Z,28.27
2022-08-26T11:57:32.889Z,27.93
2022-08-26T12:00:00.239Z,27.88
2022-08-26T12:02:27.814Z,27.85
2022-08-26T12:04:54.863Z,27.76
2022-08-26T12:07:26.032Z,27.78
2022-08-26T12:10:02.299Z,27.75
2022-08-26T12:12:38.543Z,27.69
2022-08-26T12:15:18.592Z,27.66
2022-08-26T12:17:50.487Z,27.81
2022-08-26T12:20:54.007Z,27.81
2022-08-26T12:23:40.869Z,27.95
2022-08-26T12:26:21.307Z,27.97
2022-08-26T12:29:00.822Z,27.87
2022-08-26T12:31:43.369Z,28.02
2022-08-26T12:34:17.841Z,28.36
2022-08-26T12:36:53.726Z,28.56
2022-08-26T12:39:28.937Z,28.81
2022-08-26T12:41:58.390Z,28.68
2022-08-26T12:44:53.745Z,28.71
2022-08-26T12:47:42.645Z,29.07
2022-08-26T12:50:27.231Z,29.31
2022-08-26T12:53:02.280Z,29.87
2022-08-26T12:55:33.577Z,30.19
2022-08-26T12:58:22.898Z,30.30
2022-08-26T13:00:56.457Z,30.26
2022-08-26T13:03:50.188Z,30.06
2022-08-26T13:06:27.700Z,30.28
2022-08-26T13:09:00.185Z,30.51
2022-08-26T13:11:35.507Z,30.44
2022-08-26T13:14:21.009Z,30.41
2022-08-26T13:16:50.563Z,30.13
2022-08-26T13:19:22.449Z,30.01
2022-08-26T13:21:57.417Z,29.90
2022-08-26T13:24:37.124Z,29.77
2022-08-26T13:27:07.523Z,29.53
2022-08-26T13:29:35.694Z,29.31
2022-08-26T13:32:04.755Z,29.01
2022-08-26T13:34:31.491Z,28.83
2022-08-26T13:36:59.113Z,28.54
2022-08-26T13:39:26.583Z,28.19
2022-08-26T13:41:53.312Z,27.89
2022-08-26T13:44:21.497Z,27.73
2022-08-26T13:46:48.117Z,27.82
2022-08-26T13:49:14.593Z,27.72
2022-08-26T13:51:41.789Z,27.47
2022-08-26T13:54:08.793Z,27.52
2022-08-26T13:56:36.176Z,27.41
2022-08-26T13:59:04.079Z,27.41
2022-08-26T14:01:32.090Z,27.33
2022-08-26T14:03:59.698Z,27.31
2022-08-26T14:06:26.544Z,27.06
2022-08-26T14:08:53.207Z,27.02
2022-08-26T14:11:21.368Z,26.94
2022-08-26T14:13:47.896Z,26.95
2022-08-26T14:16:27.103Z,26.84
2022-08-26T14:18:54.203Z,26.69
2022-08-26T14:21:21.305Z,26.58
2022-08-26T14:23:47.898Z,26.50
2022-08-26T14:26:28.940Z,26.61
2022-08-26T14:28:58.592Z,26.64
2022-08-26T14:31:26.898Z,26.69
2022-08-26T14:33:54.861Z,26.73
2022-08-26T14:36:33.354Z,26.77
2022-08-26T14:39:05.031Z,26.65
2022-08-26T14:41:33.743Z,26.54
2022-08-26T14:44:05.930Z,26.66
2022-08-26T14:46:39.886Z,26.47
2022-08-26T14:49:10.394Z,26.38
2022-08-26T14:51:38.078Z,26.03
2022-08-26T14:54:13.787Z,25.88
2022-08-26T14:56:56.486Z,25.75
2022-08-26T14:59:33.212Z,25.59
2022-08-26T15:02:00.631Z,25.49
2022-08-26T15:04:28.519Z,25.42
2022-08-26T15:06:56.847Z,25.32
2022-08-26T15:09:24.860Z,25.46
2022-08-26T15:11:53.094Z,25.59
2022-08-26T15:14:21.590Z,25.67
2022-08-26T15:16:50.160Z,25.52
2022-08-26T15:19:17.725Z,25.34
2022-08-26T15:21:45.481Z,25.40
2022-08-26T15:24:13.133Z,25.49
2022-08-26T15:26:39.962Z,25.47
2022-08-26T15:29:06.885Z,25.30
2022-08-26T15:31:38.584Z,25.32
2022-08-26T15:34:12.138Z,25.36
2022-08-26T15:36:44.685Z,25.21
2022-08-26T15:39:11.342Z,25.09
2022-08-26T15:41:38.378Z,25.04
2022-08-26T15:44:07.702Z,24.88
2022-08-26T15:46:35.871Z,24.82
2022-08-26T15:49:05.864Z,24.78
2022-08-26T15:51:45.513Z,24.72
2022-08-26T15:54:12.738Z,24.66
2022-08-26T15:56:39.206Z,24.66
2022-08-26T15:59:08.386Z,24.53
2022-08-26T16:01:36.046Z,24.33
2022-08-26T16:04:04.592Z,24.31
2022-08-26T16:06:35.939Z,24.17
2022-08-26T16:09:05.852Z,24.08
2022-08-26T16:11:33.973Z,24.03
2022-08-26T16:14:00.902Z,23.84
2022-08-26T16:16:27.517Z,23.88
2022-08-26T16:18:54.656Z,23.84
2022-08-26T16:21:25.468Z,23.88
2022-08-26T16:23:52.211Z,23.72
2022-08-26T16:26:22.639Z,23.67
2022-08-26T16:28:49.074Z,23.65
2022-08-26T16:31:16.180Z,23.54
2022-08-26T16:33:42.908Z,23.61
2022-08-26T16:36:10.133Z,23.75
2022-08-26T16:38:38.640Z,23.71
2022-08-26T16:41:06.163Z,23.60
2022-08-26T16:43:33.949Z,23.71
2022-08-26T16:46:00.634Z,23.56
2022-08-26T16:48:27.940Z,23.42
2022-08-26T16:50:55.493Z,23.49
2022-08-26T16:53:25.663Z,23.41
2022-08-26T16:55:52.182Z,23.30
2022-08-26T16:58:22.261Z,23.31
2022-08-26T17:00:49.529Z,23.23
2022-08-26T17:03:16.150Z,23.26
2022-08-26T17:05:42.736Z,23.26
2022-08-26T17:08:09.501Z,23.16
2022-08-26T17:10:37.684Z,23.04
2022-08-26T17:13:07.301Z,23.08
2022-08-26T17:15:35.222Z,23.10
2022-08-26T17:18:02.266Z,22.99
2022-08-26T17:20:29.879Z,22.96
2022-08-26T17:22:56.395Z,22.99
2022-08-26T17:25:27.063Z,22.97
2022-08-26T17:27:53.918Z,22.96
2022-08-26T17:30:25.468Z,22.86
2022-08-26T17:32:52.356Z,22.90
2022-08-26T17:35:20.330Z,22.80
2022-08-26T17:37:47.149Z,22.85
2022-08-26T17:40:18.367Z,22.77
2022-08-26T17:42:44.986Z,22.71
2022-08-26T17:45:12.663Z,22.69
2022-08-26T17:47:41.366Z,22.56
2022-08-26T17:50:12.999Z,22.58
2022-08-26T17:52:41.309Z,22.55
2022-08-26T17:55:17.106Z,22.58
2022-08-26T17:57:43.912Z,22.58
2022-08-26T18:00:22.601Z,22.44
2022-08-26T18:02:49.116Z,22.45
2022-08-26T18:05:17.423Z,22.34
2022-08-26T18:07:44.801Z,22.29
2022-08-26T18:10:15.494Z,22.31
2022-08-26T18:12:42.403Z,22.27
2022-08-26T18:15:11.494Z,22.25
2022-08-26T18:17:39.274Z,22.15
2022-08-26T18:20:16.053Z,22.11
2022-08-26T18:22:43.708Z,22.03
2022-08-26T18:25:11.623Z,22.12
2022-08-26T18:27:38.970Z,22.21
2022-08-26T18:30:13.402Z,22.17
2022-08-26T18:32:42.685Z,21.97
2022-08-26T18:35:10.354Z,21.92
2022-08-26T18:37:37.784Z,21.89
2022-08-26T18:40:07.100Z,21.95
2022-08-26T18:42:35.230Z,21.93
2022-08-26T18:45:15.977Z,22.02
2022-08-26T18:47:43.230Z,21.90
2022-08-26T18:50:11.489Z,21.99
2022-08-26T18:52:38.842Z,21.88
2022-08-26T18:55:07.654Z,21.93
2022-08-26T18:57:36.173Z,21.90
2022-08-26T19:00:11.512Z,21.93
2022-08-26T19:02:38.857Z,21.80
2022-08-26T19:05:07.151Z,21.75
2022-08-26T19:07:45.224Z,21.82
2022-08-26T19:10:14.519Z,21.86
2022-08-26T19:12:42.280Z,21.79
2022-08-26T19:15:09.558Z,21.84
2022-08-26T19:17:37.295Z,21.78
2022-08-26T19:20:09.657Z,21.78
2022-08-26T19:22:37.522Z,21.87
2022-08-26T19:25:06.062Z,21.82
2022-08-26T19:27:33.883Z,21.87
2022-08-26T19:30:00.596Z,21.83
2022-08-26T19:32:27.047Z,21.85
2022-08-26T19:34:54.523Z,21.75
2022-08-26T19:37:24.675Z,21.71
2022-08-26T19:39:51.354Z,21.74
2022-08-26T19:42:17.909Z,21.65
2022-08-26T19:45:03.348Z,21.56
2022-08-26T19:47:31.544Z,21.56
2022-08-26T19:49:58.007Z,21.34
2022-08-26T19:52:30.093Z,21.34
2022-08-26T19:54:57.609Z,21.36
2022-08-26T19:57:24.186Z,21.38
2022-08-26T19:59:50.660Z,21.24
2022-08-26T20:02:18.052Z,21.20
2022-08-26T20:04:44.612Z,21.16
2022-08-26T20:07:15.327Z,21.27
2022-08-26T20:09:45.161Z,21.16
2022-08-26T20:12:12.365Z,21.18
2022-08-26T20:14:42.192Z,21.10
2022-08-26T20:17:13.129Z,21.00
2022-08-26T20:20:01.542Z,21.05
2022-08-26T20:22:28.208Z,21.07
2022-08-26T20:24:54.709Z,21.10
2022-08-26T20:27:38.142Z,21.10
2022-08-26T20:30:07.633Z,21.05
2022-08-26T20:32:36.366Z,21.03
2022-08-26T20:35:04.602Z,21.05
2022-08-26T20:37:31.363Z,21.00
2022-08-26T20:39:58.250Z,21.07
2022-08-26T20:42:26.019Z,21.02
2022-08-26T20:44:54.473Z,21.09
2022-08-26T20:47:22.818Z,21.08
2022-08-26T20:49:52.386Z,21.07
2022-08-26T20:52:21.657Z,20.96
2022-08-26T20:54:48.086Z,21.03
2022-08-26T20:57:14.656Z,20.97
2022-08-26T20:59:42.945Z,21.01
2022-08-26T21:02:09.817Z,21.09
2022-08-26T21:04:38.108Z,21.08
2022-08-26T21:07:06.309Z,21.01
2022-08-26T21:09:33.109Z,20.90
2022-08-26T21:12:00.622Z,20.86
2022-08-26T21:14:28.194Z,20.85
2022-08-26T21:16:56.582Z,20.84
2022-08-26T21:19:23.632Z,20.87
2022-08-26T21:21:50.686Z,20.84
2022-08-26T21:24:17.724Z,20.85
2022-08-26T21:26:45.145Z,20.74
2022-08-26T21:29:13.766Z,20.83
2022-08-26T21:31:46.022Z,20.83
2022-08-26T21:34:16.108Z,20.72
2022-08-26T21:36:42.813Z,20.69
2022-08-26T21:39:11.989Z,20.72
2022-08-26T21:41:42.665Z,20.72
2022-08-26T21:44:17.781Z,20.75
2022-08-26T21:46:45.870Z,20.69
2022-08-26T21:49:15.626Z,20.64
2022-08-26T21:51:46.159Z,20.58
2022-08-26T21:54:13.295Z,20.48
2022-08-26T21:56:46.688Z,20.49
2022-08-26T21:59:18.066Z,20.55
2022-08-26T22:01:45.285Z,20.43
2022-08-26T22:04:11.729Z,20.41
2022-08-26T22:06:47.136Z,20.40
2022-08-26T22:09:15.383Z,20.31
2022-08-26T22:11:42.934Z,20.34
2022-08-26T22:14:10.605Z,20.38
2022-08-26T22:16:38.009Z,20.26
2022-08-26T22:19:05.518Z,20.27
2022-08-26T22:21:32.577Z,20.33
2022-08-26T22:23:59.081Z,20.22
2022-08-26T22:26:29.503Z,20.19
2022-08-26T22:28:58.963Z,20.28
2022-08-26T22:31:37.893Z,20.19
2022-08-26T22:34:08.998Z,20.16
2022-08-26T22:36:43.208Z,20.24
2022-08-26T22:39:14.734Z,20.12
2022-08-26T22:41:43.241Z,20.15
2022-08-26T22:44:11.722Z,20.22
2022-08-26T22:46:39.961Z,20.21
2022-08-26T22:49:09.480Z,20.20
2022-08-26T22:51:43.884Z,20.11
2022-08-26T22:54:10.954Z,20.02
2022-08-26T22:56:40.793Z,20.05
2022-08-26T22:59:12.060Z,20.08
2022-08-26T23:01:42.265Z,20.12
2022-08-26T23:04:13.113Z,20.17
2022-08-26T23:06:43.139Z,20.15
2022-08-26T23:09:10.491Z,20.20
2022-08-26T23:11:39.891Z,20.12
2022-08-26T23:14:09.938Z,20.07
2022-08-26T23:16:41.683Z,19.96
2022-08-26T23:19:10.541Z,20.01
2022-08-26T23:21:38.106Z,20.01
2022-08-26T23:24:06.381Z,19.92
2022-08-26T23:26:34.627Z,20.01
2022-08-26T23:29:02.010Z,20.08
2022-08-26T23:31:28.685Z,20.01
2022-08-26T23:34:13.745Z,19.92
2022-08-26T23:36:42.344Z,19.96
2022-08-26T23:39:10.977Z,19.96
2022-08-26T23:41:38.345Z,19.94
2022-08-26T23:44:12.227Z,19.93
2022-08-26T23:46:39.606Z,19.92
2022-08-26T23:49:06.536Z,19.96
2022-08-26T23:51:51.650Z,19.88
2022-08-26T23:54:19.545Z,19.83
2022-08-26T23:56:46.212Z,19.84
2022-08-26T23:59:12.929Z,19.88
